Weather at Inverell Airport

Public forecast

Using degrees Celsius for public forecast. Weather courtesy of forecast.io.

Closest aviation weather report (METAR) to Inverell Airport

Closest report is Moree Airport, 71.7 nm (132.7 km) WNW. Retrieved 2021/07/28 15:00 UTC (46 minutes ago):

YMOR 281500Z AUTO 12001KT 9999 // OVC092 13/11 Q1012

Closest aviation forecast (TAF) to Inverell Airport

Forecast is more than 12 hours old.

Closest forecast is Tamworth Airport, 73.4 nm (136.0 km) SSW. Retrieved 2021/07/27 18:36 UTC (21 hours ago):

TAF YSTW 271700Z 2718/2812 02006KT CAVOK FM272300 34015G25KT CAVOK FM280600 33012KT CAVOK FM281100 29006KT 9999 -RA SCT040